sensor_id;sensor_type;location;lat;lon;timestamp;pressure;altitude;pressure_sealevel;temperature;humidity
77450;BME280;66536;53.150;18.172;2023-11-21T00:02:22;100745.73;;;0.98;96.72
77450;BME280;66536;53.150;18.172;2023-11-21T00:04:48;100753.11;;;0.97;96.65
77450;BME280;66536;53.150;18.172;2023-11-21T00:07:15;100755.95;;;0.96;96.77
77450;BME280;66536;53.150;18.172;2023-11-21T00:09:42;100761.11;;;0.96;96.89
77450;BME280;66536;53.150;18.172;2023-11-21T00:12:09;100760.07;;;0.96;96.93
77450;BME280;66536;53.150;18.172;2023-11-21T00:14:37;100764.70;;;0.97;96.98
77450;BME280;66536;53.150;18.172;2023-11-21T00:17:05;100768.02;;;0.98;97.25
77450;BME280;66536;53.150;18.172;2023-11-21T00:19:32;100776.43;;;0.97;97.10
77450;BME280;66536;53.150;18.172;2023-11-21T00:22:01;100779.94;;;0.96;97.07
77450;BME280;66536;53.150;18.172;2023-11-21T00:24:28;100778.67;;;0.95;97.07
77450;BME280;66536;53.150;18.172;2023-11-21T00:26:57;100780.66;;;0.92;96.93
77450;BME280;66536;53.150;18.172;2023-11-21T00:29:24;100778.08;;;0.89;96.87
77450;BME280;66536;53.150;18.172;2023-11-21T00:31:51;100781.89;;;0.86;96.88
77450;BME280;66536;53.150;18.172;2023-11-21T00:34:18;100785.43;;;0.84;96.89
77450;BME280;66536;53.150;18.172;2023-11-21T00:36:46;100782.32;;;0.83;96.84
77450;BME280;66536;53.150;18.172;2023-11-21T00:39:13;100784.02;;;0.80;96.75
77450;BME280;66536;53.150;18.172;2023-11-21T00:41:40;100788.48;;;0.77;96.70
77450;BME280;66536;53.150;18.172;2023-11-21T00:44:08;100788.79;;;0.76;96.63
77450;BME280;66536;53.150;18.172;2023-11-21T00:46:35;100795.25;;;0.75;96.72
77450;BME280;66536;53.150;18.172;2023-11-21T00:49:02;100800.56;;;0.75;96.78
77450;BME280;66536;53.150;18.172;2023-11-21T00:51:30;100803.05;;;0.72;96.63
77450;BME280;66536;53.150;18.172;2023-11-21T00:53:58;100804.55;;;0.71;96.58
77450;BME280;66536;53.150;18.172;2023-11-21T00:56:24;100809.33;;;0.70;96.62
77450;BME280;66536;53.150;18.172;2023-11-21T00:58:53;100809.41;;;0.69;96.66
77450;BME280;66536;53.150;18.172;2023-11-21T01:01:21;100811.77;;;0.68;96.52
77450;BME280;66536;53.150;18.172;2023-11-21T01:03:49;100808.88;;;0.68;96.50
77450;BME280;66536;53.150;18.172;2023-11-21T01:06:16;100812.52;;;0.69;96.71
77450;BME280;66536;53.150;18.172;2023-11-21T01:08:44;100812.52;;;0.69;96.72
77450;BME280;66536;53.150;18.172;2023-11-21T01:11:11;100817.05;;;0.69;96.81
77450;BME280;66536;53.150;18.172;2023-11-21T01:13:39;100816.81;;;0.70;96.69
77450;BME280;66536;53.150;18.172;2023-11-21T01:16:07;100818.61;;;0.71;96.77
77450;BME280;66536;53.150;18.172;2023-11-21T01:18:35;100827.83;;;0.72;96.60
77450;BME280;66536;53.150;18.172;2023-11-21T01:21:02;100832.59;;;0.74;96.64
77450;BME280;66536;53.150;18.172;2023-11-21T01:23:29;100831.27;;;0.75;96.66
77450;BME280;66536;53.150;18.172;2023-11-21T01:25:57;100830.43;;;0.77;96.66
77450;BME280;66536;53.150;18.172;2023-11-21T01:28:24;100834.45;;;0.78;96.58
77450;BME280;66536;53.150;18.172;2023-11-21T01:30:50;100839.39;;;0.77;96.53
77450;BME280;66536;53.150;18.172;2023-11-21T01:33:17;100845.45;;;0.76;96.51
77450;BME280;66536;53.150;18.172;2023-11-21T01:35:44;100839.88;;;0.76;96.36
77450;BME280;66536;53.150;18.172;2023-11-21T01:38:12;100844.83;;;0.76;96.46
77450;BME280;66536;53.150;18.172;2023-11-21T01:40:39;100844.57;;;0.75;96.47
77450;BME280;66536;53.150;18.172;2023-11-21T01:43:06;100846.16;;;0.74;96.16
77450;BME280;66536;53.150;18.172;2023-11-21T01:45:35;100845.33;;;0.72;96.12
77450;BME280;66536;53.150;18.172;2023-11-21T01:48:02;100848.65;;;0.69;95.84
77450;BME280;66536;53.150;18.172;2023-11-21T01:50:30;100852.69;;;0.66;95.73
77450;BME280;66536;53.150;18.172;2023-11-21T01:52:57;100850.28;;;0.62;95.66
77450;BME280;66536;53.150;18.172;2023-11-21T01:55:24;100856.27;;;0.60;95.86
77450;BME280;66536;53.150;18.172;2023-11-21T01:57:51;100860.15;;;0.59;96.04
77450;BME280;66536;53.150;18.172;2023-11-21T02:00:18;100858.88;;;0.56;96.11
77450;BME280;66536;53.150;18.172;2023-11-21T02:02:47;100859.62;;;0.54;96.04
77450;BME280;66536;53.150;18.172;2023-11-21T02:05:15;100852.89;;;0.51;96.17
77450;BME280;66536;53.150;18.172;2023-11-21T02:07:45;100853.42;;;0.49;96.09
77450;BME280;66536;53.150;18.172;2023-11-21T02:10:16;100849.25;;;0.48;96.23
77450;BME280;66536;53.150;18.172;2023-11-21T02:12:44;100851.92;;;0.48;96.36
77450;BME280;66536;53.150;18.172;2023-11-21T02:15:13;100858.46;;;0.47;96.35
77450;BME280;66536;53.150;18.172;2023-11-21T02:17:42;100857.65;;;0.45;96.34
77450;BME280;66536;53.150;18.172;2023-11-21T02:20:11;100863.06;;;0.42;96.15
77450;BME280;66536;53.150;18.172;2023-11-21T02:22:51;100862.94;;;0.37;96.15
77450;BME280;66536;53.150;18.172;2023-11-21T02:25:25;100867.41;;;0.35;95.98
77450;BME280;66536;53.150;18.172;2023-11-21T02:27:55;100867.44;;;0.33;95.94
77450;BME280;66536;53.150;18.172;2023-11-21T02:30:22;100872.91;;;0.32;96.04
77450;BME280;66536;53.150;18.172;2023-11-21T02:32:52;100870.24;;;0.33;95.44
77450;BME280;66536;53.150;18.172;2023-11-21T02:35:20;100869.73;;;0.33;95.19
77450;BME280;66536;53.150;18.172;2023-11-21T02:37:48;100871.16;;;0.35;95.34
77450;BME280;66536;53.150;18.172;2023-11-21T02:40:15;100881.95;;;0.37;95.22
77450;BME280;66536;53.150;18.172;2023-11-21T02:42:47;100881.66;;;0.39;94.84
77450;BME280;66536;53.150;18.172;2023-11-21T02:45:15;100884.84;;;0.39;94.80
77450;BME280;66536;53.150;18.172;2023-11-21T02:47:44;100885.81;;;0.40;94.79
77450;BME280;66536;53.150;18.172;2023-11-21T02:50:11;100886.02;;;0.41;94.83
77450;BME280;66536;53.150;18.172;2023-11-21T02:52:40;100891.77;;;0.41;94.92
77450;BME280;66536;53.150;18.172;2023-11-21T02:55:07;100891.38;;;0.42;94.90
77450;BME280;66536;53.150;18.172;2023-11-21T02:57:34;100895.73;;;0.41;94.82
77450;BME280;66536;53.150;18.172;2023-11-21T03:00:02;100892.69;;;0.39;94.03
77450;BME280;66536;53.150;18.172;2023-11-21T03:02:29;100894.27;;;0.38;94.20
77450;BME280;66536;53.150;18.172;2023-11-21T03:04:56;100898.63;;;0.37;94.10
77450;BME280;66536;53.150;18.172;2023-11-21T03:07:23;100900.27;;;0.36;94.08
77450;BME280;66536;53.150;18.172;2023-11-21T03:09:50;100904.25;;;0.35;94.17
77450;BME280;66536;53.150;18.172;2023-11-21T03:12:17;100908.61;;;0.33;94.15
77450;BME280;66536;53.150;18.172;2023-11-21T03:14:44;100916.45;;;0.33;94.28
77450;BME280;66536;53.150;18.172;2023-11-21T03:17:10;100918.29;;;0.31;94.25
77450;BME280;66536;53.150;18.172;2023-11-21T03:19:38;100921.18;;;0.31;94.35
77450;BME280;66536;53.150;18.172;2023-11-21T03:22:04;100922.98;;;0.32;94.33
77450;BME280;66536;53.150;18.172;2023-11-21T03:24:31;100925.77;;;0.31;94.35
77450;BME280;66536;53.150;18.172;2023-11-21T03:26:58;100929.45;;;0.30;94.23
77450;BME280;66536;53.150;18.172;2023-11-21T03:29:25;100931.86;;;0.29;94.27
77450;BME280;66536;53.150;18.172;2023-11-21T03:31:52;100935.81;;;0.29;94.17
77450;BME280;66536;53.150;18.172;2023-11-21T03:34:25;100931.77;;;0.27;93.89
77450;BME280;66536;53.150;18.172;2023-11-21T03:36:53;100933.62;;;0.25;93.85
77450;BME280;66536;53.150;18.172;2023-11-21T03:39:20;100933.80;;;0.25;93.96
77450;BME280;66536;53.150;18.172;2023-11-21T03:41:49;100932.15;;;0.24;93.90
77450;BME280;66536;53.150;18.172;2023-11-21T03:44:16;100933.27;;;0.21;93.63
77450;BME280;66536;53.150;18.172;2023-11-21T03:46:45;100930.85;;;0.18;93.42
77450;BME280;66536;53.150;18.172;2023-11-21T03:49:12;100930.15;;;0.14;93.64
77450;BME280;66536;53.150;18.172;2023-11-21T03:51:40;100930.02;;;0.12;93.63
77450;BME280;66536;53.150;18.172;2023-11-21T03:54:06;100924.72;;;0.09;93.20
77450;BME280;66536;53.150;18.172;2023-11-21T03:56:33;100923.47;;;0.05;93.38
77450;BME280;66536;53.150;18.172;2023-11-21T03:59:00;100925.83;;;0.04;93.55
77450;BME280;66536;53.150;18.172;2023-11-21T04:01:27;100928.58;;;0.04;93.87
77450;BME280;66536;53.150;18.172;2023-11-21T04:03:54;100931.13;;;0.03;93.80
77450;BME280;66536;53.150;18.172;2023-11-21T04:06:21;100934.80;;;0.02;93.66
77450;BME280;66536;53.150;18.172;2023-11-21T04:08:48;100938.81;;;0.00;93.40
77450;BME280;66536;53.150;18.172;2023-11-21T04:11:16;100944.55;;;0.01;93.58
77450;BME280;66536;53.150;18.172;2023-11-21T04:13:43;100944.63;;;-0.00;93.37
77450;BME280;66536;53.150;18.172;2023-11-21T04:16:11;100941.91;;;-0.02;93.38
77450;BME280;66536;53.150;18.172;2023-11-21T04:18:38;100950.67;;;-0.03;93.03
77450;BME280;66536;53.150;18.172;2023-11-21T04:21:06;100949.27;;;-0.07;92.84
77450;BME280;66536;53.150;18.172;2023-11-21T04:23:33;100952.94;;;-0.10;92.83
77450;BME280;66536;53.150;18.172;2023-11-21T04:26:00;100957.56;;;-0.12;92.88
77450;BME280;66536;53.150;18.172;2023-11-21T04:28:28;100956.23;;;-0.15;92.78
77450;BME280;66536;53.150;18.172;2023-11-21T04:30:55;100963.85;;;-0.17;92.97
77450;BME280;66536;53.150;18.172;2023-11-21T04:33:22;100968.91;;;-0.16;93.02
77450;BME280;66536;53.150;18.172;2023-11-21T04:35:49;100970.39;;;-0.20;92.63
77450;BME280;66536;53.150;18.172;2023-11-21T04:38:15;100972.16;;;-0.22;92.70
77450;BME280;66536;53.150;18.172;2023-11-21T04:40:42;100972.90;;;-0.23;92.72
77450;BME280;66536;53.150;18.172;2023-11-21T04:43:09;100974.22;;;-0.23;93.08
77450;BME280;66536;53.150;18.172;2023-11-21T04:45:36;100975.94;;;-0.23;92.86
77450;BME280;66536;53.150;18.172;2023-11-21T04:48:03;100977.50;;;-0.23;92.51
77450;BME280;66536;53.150;18.172;2023-11-21T04:50:30;100983.02;;;-0.24;92.45
77450;BME280;66536;53.150;18.172;2023-11-21T04:52:57;100992.44;;;-0.26;92.49
77450;BME280;66536;53.150;18.172;2023-11-21T04:55:24;100993.80;;;-0.26;92.53
77450;BME280;66536;53.150;18.172;2023-11-21T04:57:50;101003.58;;;-0.25;92.63
77450;BME280;66536;53.150;18.172;2023-11-21T05:00:17;101001.02;;;-0.25;92.36
77450;BME280;66536;53.150;18.172;2023-11-21T05:02:44;101008.61;;;-0.24;92.47
77450;BME280;66536;53.150;18.172;2023-11-21T05:05:11;101016.74;;;-0.24;92.50
77450;BME280;66536;53.150;18.172;2023-11-21T05:07:40;101017.16;;;-0.25;92.52
77450;BME280;66536;53.150;18.172;2023-11-21T05:10:08;101021.58;;;-0.25;92.54
77450;BME280;66536;53.150;18.172;2023-11-21T05:12:38;101024.34;;;-0.26;92.76
77450;BME280;66536;53.150;18.172;2023-11-21T05:15:05;101023.95;;;-0.25;93.00
77450;BME280;66536;53.150;18.172;2023-11-21T05:17:34;101023.06;;;-0.25;93.10
77450;BME280;66536;53.150;18.172;2023-11-21T05:20:01;101020.69;;;-0.23;93.13
77450;BME280;66536;53.150;18.172;2023-11-21T05:22:30;101022.01;;;-0.22;92.82
77450;BME280;66536;53.150;18.172;2023-11-21T05:24:57;101020.52;;;-0.23;92.63
77450;BME280;66536;53.150;18.172;2023-11-21T05:27:25;101019.24;;;-0.22;92.86
77450;BME280;66536;53.150;18.172;2023-11-21T05:29:52;101024.78;;;-0.21;92.71
77450;BME280;66536;53.150;18.172;2023-11-21T05:32:19;101027.73;;;-0.22;92.86
77450;BME280;66536;53.150;18.172;2023-11-21T05:34:46;101031.70;;;-0.22;92.88
77450;BME280;66536;53.150;18.172;2023-11-21T05:37:12;101038.16;;;-0.23;92.87
77450;BME280;66536;53.150;18.172;2023-11-21T05:39:39;101040.05;;;-0.23;92.64
77450;BME280;66536;53.150;18.172;2023-11-21T05:42:06;101045.65;;;-0.23;92.89
77450;BME280;66536;53.150;18.172;2023-11-21T05:44:33;101049.46;;;-0.22;92.82
77450;BME280;66536;53.150;18.172;2023-11-21T05:47:01;101051.88;;;-0.23;92.51
77450;BME280;66536;53.150;18.172;2023-11-21T05:49:28;101056.14;;;-0.21;92.37
77450;BME280;66536;53.150;18.172;2023-11-21T05:51:56;101055.49;;;-0.21;92.34
77450;BME280;66536;53.150;18.172;2023-11-21T05:54:23;101058.41;;;-0.22;92.18
77450;BME280;66536;53.150;18.172;2023-11-21T05:56:50;101063.48;;;-0.22;91.97
77450;BME280;66536;53.150;18.172;2023-11-21T05:59:17;101066.77;;;-0.22;91.82
77450;BME280;66536;53.150;18.172;2023-11-21T06:01:44;101074.09;;;-0.23;91.68
77450;BME280;66536;53.150;18.172;2023-11-21T06:04:13;101066.38;;;-0.24;91.58
77450;BME280;66536;53.150;18.172;2023-11-21T06:06:40;101073.75;;;-0.23;91.68
77450;BME280;66536;53.150;18.172;2023-11-21T06:09:07;101076.64;;;-0.23;91.25
77450;BME280;66536;53.150;18.172;2023-11-21T06:11:35;101081.15;;;-0.24;91.08
77450;BME280;66536;53.150;18.172;2023-11-21T06:14:02;101089.52;;;-0.25;91.13
77450;BME280;66536;53.150;18.172;2023-11-21T06:16:29;101091.92;;;-0.25;90.65
77450;BME280;66536;53.150;18.172;2023-11-21T06:18:56;101105.66;;;-0.25;90.76
77450;BME280;66536;53.150;18.172;2023-11-21T06:21:22;101108.96;;;-0.26;90.48
77450;BME280;66536;53.150;18.172;2023-11-21T06:23:50;101115.79;;;-0.27;90.33
77450;BME280;66536;53.150;18.172;2023-11-21T06:26:18;101121.70;;;-0.26;90.65
77450;BME280;66536;53.150;18.172;2023-11-21T06:28:45;101127.69;;;-0.25;90.27
77450;BME280;66536;53.150;18.172;2023-11-21T06:31:12;101131.02;;;-0.26;89.83
77450;BME280;66536;53.150;18.172;2023-11-21T06:33:39;101136.90;;;-0.26;89.48
77450;BME280;66536;53.150;18.172;2023-11-21T06:36:06;101142.63;;;-0.26;89.19
77450;BME280;66536;53.150;18.172;2023-11-21T06:38:34;101140.11;;;-0.26;89.00
77450;BME280;66536;53.150;18.172;2023-11-21T06:41:01;101140.58;;;-0.25;88.95
77450;BME280;66536;53.150;18.172;2023-11-21T06:43:31;101148.29;;;-0.24;89.21
77450;BME280;66536;53.150;18.172;2023-11-21T06:45:58;101147.02;;;-0.23;88.52
77450;BME280;66536;53.150;18.172;2023-11-21T06:48:25;101147.38;;;-0.23;88.15
77450;BME280;66536;53.150;18.172;2023-11-21T06:50:52;101150.80;;;-0.24;87.90
77450;BME280;66536;53.150;18.172;2023-11-21T06:53:19;101149.36;;;-0.23;88.23
77450;BME280;66536;53.150;18.172;2023-11-21T06:55:46;101152.76;;;-0.21;88.53
77450;BME280;66536;53.150;18.172;2023-11-21T06:58:12;101157.16;;;-0.19;88.69
77450;BME280;66536;53.150;18.172;2023-11-21T07:00:41;101166.67;;;-0.17;88.79
77450;BME280;66536;53.150;18.172;2023-11-21T07:03:14;101170.38;;;-0.14;88.73
77450;BME280;66536;53.150;18.172;2023-11-21T07:05:41;101174.05;;;-0.12;88.91
77450;BME280;66536;53.150;18.172;2023-11-21T07:08:09;101172.61;;;-0.09;89.06
77450;BME280;66536;53.150;18.172;2023-11-21T07:10:36;101174.01;;;-0.07;88.13
77450;BME280;66536;53.150;18.172;2023-11-21T07:13:04;101178.49;;;-0.06;88.03
77450;BME280;66536;53.150;18.172;2023-11-21T07:15:31;101181.66;;;-0.05;87.39
77450;BME280;66536;53.150;18.172;2023-11-21T07:17:59;101181.95;;;-0.05;87.47
77450;BME280;66536;53.150;18.172;2023-11-21T07:20:26;101187.95;;;-0.04;87.44
77450;BME280;66536;53.150;18.172;2023-11-21T07:22:56;101189.27;;;-0.03;87.29
77450;BME280;66536;53.150;18.172;2023-11-21T07:25:25;101193.70;;;-0.03;86.87
77450;BME280;66536;53.150;18.172;2023-11-21T07:27:54;101191.02;;;-0.04;86.43
77450;BME280;66536;53.150;18.172;2023-11-21T07:30:22;101191.55;;;-0.04;86.25
77450;BME280;66536;53.150;18.172;2023-11-21T07:32:49;101202.98;;;-0.05;85.97
77450;BME280;66536;53.150;18.172;2023-11-21T07:35:16;101205.43;;;-0.04;86.41
77450;BME280;66536;53.150;18.172;2023-11-21T07:37:43;101207.31;;;-0.04;86.35
77450;BME280;66536;53.150;18.172;2023-11-21T07:40:11;101216.05;;;-0.03;86.08
77450;BME280;66536;53.150;18.172;2023-11-21T07:42:42;101217.59;;;-0.01;86.67
77450;BME280;66536;53.150;18.172;2023-11-21T07:45:13;101219.82;;;0.05;86.90
77450;BME280;66536;53.150;18.172;2023-11-21T07:47:42;101218.38;;;0.14;86.83
77450;BME280;66536;53.150;18.172;2023-11-21T07:50:09;101220.98;;;0.26;86.48
77450;BME280;66536;53.150;18.172;2023-11-21T07:52:36;101215.46;;;0.39;86.11
77450;BME280;66536;53.150;18.172;2023-11-21T07:55:08;101209.77;;;0.52;86.05
77450;BME280;66536;53.150;18.172;2023-11-21T07:57:35;101212.20;;;0.63;85.77
77450;BME280;66536;53.150;18.172;2023-11-21T08:00:03;101219.73;;;0.70;85.48
77450;BME280;66536;53.150;18.172;2023-11-21T08:02:40;101223.64;;;0.74;85.08
77450;BME280;66536;53.150;18.172;2023-11-21T08:05:08;101224.05;;;0.79;85.13
77450;BME280;66536;53.150;18.172;2023-11-21T08:07:35;101227.48;;;0.83;84.36
77450;BME280;66536;53.150;18.172;2023-11-21T08:10:03;101233.33;;;0.86;84.70
77450;BME280;66536;53.150;18.172;2023-11-21T08:12:31;101234.98;;;0.90;84.92
77450;BME280;66536;53.150;18.172;2023-11-21T08:14:59;101237.41;;;0.93;84.62
77450;BME280;66536;53.150;18.172;2023-11-21T08:17:29;101231.55;;;0.95;84.29
77450;BME280;66536;53.150;18.172;2023-11-21T08:19:59;101231.11;;;0.90;83.42
77450;BME280;66536;53.150;18.172;2023-11-21T08:22:26;101223.73;;;0.85;83.32
77450;BME280;66536;53.150;18.172;2023-11-21T08:24:54;101230.33;;;0.79;83.20
77450;BME280;66536;53.150;18.172;2023-11-21T08:27:23;101231.30;;;0.74;82.69
77450;BME280;66536;53.150;18.172;2023-11-21T08:29:50;101235.55;;;0.72;83.10
77450;BME280;66536;53.150;18.172;2023-11-21T08:32:18;101235.66;;;0.72;83.49
77450;BME280;66536;53.150;18.172;2023-11-21T08:34:47;101238.33;;;0.77;83.14
77450;BME280;66536;53.150;18.172;2023-11-21T08:37:17;101236.97;;;0.83;82.38
77450;BME280;66536;53.150;18.172;2023-11-21T08:39:44;101235.69;;;0.92;82.87
77450;BME280;66536;53.150;18.172;2023-11-21T08:42:12;101239.84;;;1.03;82.23
77450;BME280;66536;53.150;18.172;2023-11-21T08:44:40;101234.52;;;1.08;81.32
77450;BME280;66536;53.150;18.172;2023-11-21T08:47:08;101233.86;;;1.10;81.14
77450;BME280;66536;53.150;18.172;2023-11-21T08:49:35;101236.58;;;1.10;80.88
77450;BME280;66536;53.150;18.172;2023-11-21T08:52:02;101243.98;;;1.11;80.96
77450;BME280;66536;53.150;18.172;2023-11-21T08:54:31;101243.52;;;1.14;80.94
77450;BME280;66536;53.150;18.172;2023-11-21T08:56:58;101244.05;;;1.19;80.97
77450;BME280;66536;53.150;18.172;2023-11-21T08:59:25;101243.05;;;1.31;80.91
77450;BME280;66536;53.150;18.172;2023-11-21T09:01:53;101247.23;;;1.49;80.52
77450;BME280;66536;53.150;18.172;2023-11-21T09:04:20;101252.80;;;1.68;80.74
77450;BME280;66536;53.150;18.172;2023-11-21T09:06:46;101253.70;;;1.88;80.87
77450;BME280;66536;53.150;18.172;2023-11-21T09:09:13;101255.66;;;2.08;79.89
77450;BME280;66536;53.150;18.172;2023-11-21T09:11:40;101257.60;;;2.19;79.53
77450;BME280;66536;53.150;18.172;2023-11-21T09:14:07;101261.97;;;2.29;79.49
77450;BME280;66536;53.150;18.172;2023-11-21T09:16:37;101264.04;;;2.30;77.29
77450;BME280;66536;53.150;18.172;2023-11-21T09:19:05;101265.05;;;2.25;78.32
77450;BME280;66536;53.150;18.172;2023-11-21T09:21:34;101266.79;;;2.23;78.65
77450;BME280;66536;53.150;18.172;2023-11-21T09:24:00;101264.84;;;2.21;77.59
77450;BME280;66536;53.150;18.172;2023-11-21T09:26:27;101265.84;;;2.22;78.11
77450;BME280;66536;53.150;18.172;2023-11-21T09:28:56;101269.16;;;2.21;76.77
77450;BME280;66536;53.150;18.172;2023-11-21T09:31:23;101272.90;;;2.17;76.79
77450;BME280;66536;53.150;18.172;2023-11-21T09:33:51;101284.53;;;2.13;76.52
77450;BME280;66536;53.150;18.172;2023-11-21T09:36:18;101288.19;;;2.06;75.97
77450;BME280;66536;53.150;18.172;2023-11-21T09:38:45;101292.96;;;2.02;76.29
77450;BME280;66536;53.150;18.172;2023-11-21T09:41:20;101290.88;;;1.99;76.32
77450;BME280;66536;53.150;18.172;2023-11-21T09:43:55;101295.39;;;1.96;75.97
77450;BME280;66536;53.150;18.172;2023-11-21T09:46:27;101298.23;;;1.94;76.62
77450;BME280;66536;53.150;18.172;2023-11-21T09:48:55;101303.73;;;1.96;77.49
77450;BME280;66536;53.150;18.172;2023-11-21T09:51:27;101302.77;;;1.97;76.40
77450;BME280;66536;53.150;18.172;2023-11-21T09:53:57;101305.04;;;1.95;76.78
77450;BME280;66536;53.150;18.172;2023-11-21T09:56:28;101302.08;;;1.92;76.25
77450;BME280;66536;53.150;18.172;2023-11-21T09:59:01;101302.16;;;1.87;76.36
77450;BME280;66536;53.150;18.172;2023-11-21T10:01:33;101298.46;;;1.86;76.93
77450;BME280;66536;53.150;18.172;2023-11-21T10:04:02;101303.52;;;1.89;77.95
77450;BME280;66536;53.150;18.172;2023-11-21T10:06:30;101302.83;;;1.91;77.99
77450;BME280;66536;53.150;18.172;2023-11-21T10:08:59;101297.77;;;1.85;77.23
77450;BME280;66536;53.150;18.172;2023-11-21T10:11:27;101300.98;;;1.79;77.50
77450;BME280;66536;53.150;18.172;2023-11-21T10:13:59;101300.07;;;1.74;77.86
77450;BME280;66536;53.150;18.172;2023-11-21T10:16:27;101298.92;;;1.74;78.60
77450;BME280;66536;53.150;18.172;2023-11-21T10:18:55;101298.23;;;1.79;78.74
77450;BME280;66536;53.150;18.172;2023-11-21T10:21:23;101299.55;;;1.85;78.31
77450;BME280;66536;53.150;18.172;2023-11-21T10:23:52;101302.80;;;1.89;77.48
77450;BME280;66536;53.150;18.172;2023-11-21T10:26:27;101301.92;;;1.88;76.64
77450;BME280;66536;53.150;18.172;2023-11-21T10:28:58;101308.61;;;1.87;75.97
77450;BME280;66536;53.150;18.172;2023-11-21T10:31:26;101315.38;;;1.86;75.12
77450;BME280;66536;53.150;18.172;2023-11-21T10:36:32;101327.68;;;1.79;75.85
77450;BME280;66536;53.150;18.172;2023-11-21T10:39:00;101328.19;;;1.75;76.10
77450;BME280;66536;53.150;18.172;2023-11-21T10:41:27;101326.63;;;1.74;76.44
77450;BME280;66536;53.150;18.172;2023-11-21T10:43:59;101329.27;;;1.75;76.39
77450;BME280;66536;53.150;18.172;2023-11-21T10:46:27;101332.32;;;1.75;75.91
77450;BME280;66536;53.150;18.172;2023-11-21T10:48:54;101331.42;;;1.77;75.46
77450;BME280;66536;53.150;18.172;2023-11-21T10:51:22;101332.67;;;1.78;74.84
77450;BME280;66536;53.150;18.172;2023-11-21T10:53:52;101334.28;;;1.80;76.34
77450;BME280;66536;53.150;18.172;2023-11-21T10:56:23;101335.74;;;1.84;76.72
77450;BME280;66536;53.150;18.172;2023-11-21T10:58:52;101337.55;;;1.85;75.99
77450;BME280;66536;53.150;18.172;2023-11-21T11:01:19;101338.30;;;1.86;76.64
77450;BME280;66536;53.150;18.172;2023-11-21T11:03:48;101331.88;;;1.84;74.88
77450;BME280;66536;53.150;18.172;2023-11-21T11:06:16;101332.85;;;1.82;75.29
77450;BME280;66536;53.150;18.172;2023-11-21T11:08:44;101334.67;;;1.83;74.87
77450;BME280;66536;53.150;18.172;2023-11-21T11:11:12;101337.48;;;1.82;75.01
77450;BME280;66536;53.150;18.172;2023-11-21T11:13:43;101337.25;;;1.83;75.18
77450;BME280;66536;53.150;18.172;2023-11-21T11:16:11;101342.52;;;1.83;74.90
77450;BME280;66536;53.150;18.172;2023-11-21T11:18:38;101341.14;;;1.83;73.69
77450;BME280;66536;53.150;18.172;2023-11-21T11:21:14;101347.56;;;1.85;74.82
77450;BME280;66536;53.150;18.172;2023-11-21T11:24:05;101352.67;;;1.87;74.87
77450;BME280;66536;53.150;18.172;2023-11-21T11:27:01;101355.42;;;1.90;73.83
77450;BME280;66536;53.150;18.172;2023-11-21T11:29:43;101357.70;;;1.92;74.67
77450;BME280;66536;53.150;18.172;2023-11-21T11:32:21;101362.79;;;1.96;74.36
77450;BME280;66536;53.150;18.172;2023-11-21T11:35:00;101363.10;;;1.94;73.16
77450;BME280;66536;53.150;18.172;2023-11-21T11:37:28;101366.80;;;1.87;72.86
77450;BME280;66536;53.150;18.172;2023-11-21T11:39:58;101369.77;;;1.80;72.95
77450;BME280;66536;53.150;18.172;2023-11-21T11:42:26;101373.23;;;1.76;73.16
77450;BME280;66536;53.150;18.172;2023-11-21T11:44:54;101381.77;;;1.70;72.86
77450;BME280;66536;53.150;18.172;2023-11-21T11:47:32;101385.16;;;1.64;73.16
77450;BME280;66536;53.150;18.172;2023-11-21T11:50:05;101392.59;;;1.60;73.81
77450;BME280;66536;53.150;18.172;2023-11-21T11:52:38;101395.70;;;1.60;73.82
77450;BME280;66536;53.150;18.172;2023-11-21T11:55:16;101394.17;;;1.58;74.11
77450;BME280;66536;53.150;18.172;2023-11-21T11:57:51;101400.39;;;1.57;73.76
77450;BME280;66536;53.150;18.172;2023-11-21T12:00:33;101404.69;;;1.55;73.56
77450;BME280;66536;53.150;18.172;2023-11-21T12:03:07;101403.88;;;1.50;73.74
77450;BME280;66536;53.150;18.172;2023-11-21T12:05:35;101401.35;;;1.46;73.71
77450;BME280;66536;53.150;18.172;2023-11-21T12:08:07;101404.91;;;1.40;73.74
77450;BME280;66536;53.150;18.172;2023-11-21T12:10:36;101401.61;;;1.35;74.24
77450;BME280;66536;53.150;18.172;2023-11-21T12:13:07;101403.81;;;1.29;74.52
77450;BME280;66536;53.150;18.172;2023-11-21T12:15:37;101403.23;;;1.24;75.25
77450;BME280;66536;53.150;18.172;2023-11-21T12:18:05;101408.29;;;1.18;75.12
77450;BME280;66536;53.150;18.172;2023-11-21T12:20:32;101408.39;;;1.13;75.71
77450;BME280;66536;53.150;18.172;2023-11-21T12:23:09;101408.98;;;1.11;75.41
77450;BME280;66536;53.150;18.172;2023-11-21T12:25:37;101409.44;;;1.05;75.45
77450;BME280;66536;53.150;18.172;2023-11-21T12:28:06;101410.17;;;1.02;76.20
77450;BME280;66536;53.150;18.172;2023-11-21T12:30:34;101408.70;;;1.03;77.07
77450;BME280;66536;53.150;18.172;2023-11-21T12:33:02;101409.62;;;1.04;76.72
77450;BME280;66536;53.150;18.172;2023-11-21T12:35:32;101404.70;;;1.02;75.91
77450;BME280;66536;53.150;18.172;2023-11-21T12:38:02;101407.25;;;1.00;76.15
77450;BME280;66536;53.150;18.172;2023-11-21T12:40:30;101408.16;;;0.97;76.34
77450;BME280;66536;53.150;18.172;2023-11-21T12:42:59;101407.34;;;0.97;76.13
77450;BME280;66536;53.150;18.172;2023-11-21T12:45:30;101408.91;;;0.97;76.12
77450;BME280;66536;53.150;18.172;2023-11-21T12:48:00;101407.07;;;0.96;76.15
77450;BME280;66536;53.150;18.172;2023-11-21T12:50:31;101413.58;;;0.98;76.63
77450;BME280;66536;53.150;18.172;2023-11-21T12:53:02;101421.85;;;0.98;75.82
77450;BME280;66536;53.150;18.172;2023-11-21T12:55:31;101426.11;;;0.98;76.21
77450;BME280;66536;53.150;18.172;2023-11-21T12:58:01;101432.46;;;1.01;76.47